sensor_id;sensor_type;location;lat;lon;timestamp;P1;P2;P0
47081;PMS5003;33066;49.296;14.470;2022-11-28T00:00:45;45;40;
47081;PMS5003;33066;49.296;14.470;2022-11-28T00:03:10;41;38;
47081;PMS5003;33066;49.296;14.470;2022-11-28T00:05:36;43;35;
47081;PMS5003;33066;49.296;14.470;2022-11-28T00:08:02;43;40;
47081;PMS5003;33066;49.296;14.470;2022-11-28T00:10:27;44;39;
47081;PMS5003;33066;49.296;14.470;2022-11-28T00:12:53;48;45;
47081;PMS5003;33066;49.296;14.470;2022-11-28T00:15:19;49;40;
47081;PMS5003;33066;49.296;14.470;2022-11-28T00:17:46;61;45;
47081;PMS5003;33066;49.296;14.470;2022-11-28T00:20:09;50;43;
47081;PMS5003;33066;49.296;14.470;2022-11-28T00:22:36;59;47;
47081;PMS5003;33066;49.296;14.470;2022-11-28T00:25:00;53;44;
47081;PMS5003;33066;49.296;14.470;2022-11-28T00:27:26;55;47;
47081;PMS5003;33066;49.296;14.470;2022-11-28T00:29:53;45;40;
47081;PMS5003;33066;49.296;14.470;2022-11-28T00:32:17;40;37;
47081;PMS5003;33066;49.296;14.470;2022-11-28T00:34:42;49;40;
47081;PMS5003;33066;49.296;14.470;2022-11-28T00:37:08;48;44;
47081;PMS5003;33066;49.296;14.470;2022-11-28T00:39:34;44;36;
47081;PMS5003;33066;49.296;14.470;2022-11-28T00:41:59;43;36;
47081;PMS5003;33066;49.296;14.470;2022-11-28T00:44:25;41;31;
47081;PMS5003;33066;49.296;14.470;2022-11-28T00:46:50;37;32;
47081;PMS5003;33066;49.296;14.470;2022-11-28T00:49:16;46;44;
47081;PMS5003;33066;49.296;14.470;2022-11-28T00:51:42;52;47;
47081;PMS5003;33066;49.296;14.470;2022-11-28T00:54:07;45;36;
47081;PMS5003;33066;49.296;14.470;2022-11-28T00:56:33;63;50;
47081;PMS5003;33066;49.296;14.470;2022-11-28T00:58:58;92;68;
47081;PMS5003;33066;49.296;14.470;2022-11-28T01:01:24;68;51;
47081;PMS5003;33066;49.296;14.470;2022-11-28T01:03:50;51;42;
47081;PMS5003;33066;49.296;14.470;2022-11-28T01:08:40;49;44;
47081;PMS5003;33066;49.296;14.470;2022-11-28T01:11:10;47;41;
47081;PMS5003;33066;49.296;14.470;2022-11-28T01:13:30;47;39;
47081;PMS5003;33066;49.296;14.470;2022-11-28T01:15:56;40;34;
47081;PMS5003;33066;49.296;14.470;2022-11-28T01:18:21;41;36;
47081;PMS5003;33066;49.296;14.470;2022-11-28T01:20:46;35;31;
47081;PMS5003;33066;49.296;14.470;2022-11-28T01:23:12;37;30;
47081;PMS5003;33066;49.296;14.470;2022-11-28T01:25:37;26;21;
47081;PMS5003;33066;49.296;14.470;2022-11-28T01:28:02;28;27;
47081;PMS5003;33066;49.296;14.470;2022-11-28T01:30:28;19;19;
47081;PMS5003;33066;49.296;14.470;2022-11-28T01:32:53;24;20;
47081;PMS5003;33066;49.296;14.470;2022-11-28T01:35:19;29;25;
47081;PMS5003;33066;49.296;14.470;2022-11-28T01:37:45;24;21;
47081;PMS5003;33066;49.296;14.470;2022-11-28T01:40:11;26;23;
47081;PMS5003;33066;49.296;14.470;2022-11-28T01:42:34;36;24;
47081;PMS5003;33066;49.296;14.470;2022-11-28T01:45:03;24;23;
47081;PMS5003;33066;49.296;14.470;2022-11-28T01:47:26;16;15;
47081;PMS5003;33066;49.296;14.470;2022-11-28T01:49:50;23;20;
47081;PMS5003;33066;49.296;14.470;2022-11-28T01:52:17;23;20;
47081;PMS5003;33066;49.296;14.470;2022-11-28T01:54:42;18;18;
47081;PMS5003;33066;49.296;14.470;2022-11-28T01:57:11;24;17;
47081;PMS5003;33066;49.296;14.470;2022-11-28T01:59:34;18;17;
47081;PMS5003;33066;49.296;14.470;2022-11-28T02:01:58;21;20;
47081;PMS5003;33066;49.296;14.470;2022-11-28T02:04:25;18;17;
47081;PMS5003;33066;49.296;14.470;2022-11-28T02:06:51;14;9;
47081;PMS5003;33066;49.296;14.470;2022-11-28T02:09:15;15;14;
47081;PMS5003;33066;49.296;14.470;2022-11-28T02:11:50;22;12;
47081;PMS5003;33066;49.296;14.470;2022-11-28T02:14:08;24;23;
47081;PMS5003;33066;49.296;14.470;2022-11-28T02:16:36;19;14;
47081;PMS5003;33066;49.296;14.470;2022-11-28T02:18:59;20;14;
47081;PMS5003;33066;49.296;14.470;2022-11-28T02:21:28;18;18;
47081;PMS5003;33066;49.296;14.470;2022-11-28T02:31:06;18;14;
47081;PMS5003;33066;49.296;14.470;2022-11-28T02:33:29;17;14;
47081;PMS5003;33066;49.296;14.470;2022-11-28T02:35:58;19;14;
47081;PMS5003;33066;49.296;14.470;2022-11-28T02:38:21;19;13;
47081;PMS5003;33066;49.296;14.470;2022-11-28T02:40:48;15;13;
47081;PMS5003;33066;49.296;14.470;2022-11-28T02:43:13;23;16;
47081;PMS5003;33066;49.296;14.470;2022-11-28T02:45:38;19;15;
47081;PMS5003;33066;49.296;14.470;2022-11-28T02:48:02;18;15;
47081;PMS5003;33066;49.296;14.470;2022-11-28T02:50:27;21;18;
47081;PMS5003;33066;49.296;14.470;2022-11-28T02:52:52;23;21;
47081;PMS5003;33066;49.296;14.470;2022-11-28T02:55:17;19;14;
47081;PMS5003;33066;49.296;14.470;2022-11-28T02:57:46;21;14;
47081;PMS5003;33066;49.296;14.470;2022-11-28T03:02:33;15;15;
47081;PMS5003;33066;49.296;14.470;2022-11-28T03:04:59;13;13;
47081;PMS5003;33066;49.296;14.470;2022-11-28T03:07:31;20;14;
47081;PMS5003;33066;49.296;14.470;2022-11-28T03:09:55;13;12;
47081;PMS5003;33066;49.296;14.470;2022-11-28T03:12:21;18;14;
47081;PMS5003;33066;49.296;14.470;2022-11-28T03:14:43;12;10;
47081;PMS5003;33066;49.296;14.470;2022-11-28T03:17:09;27;22;
47081;PMS5003;33066;49.296;14.470;2022-11-28T03:19:32;19;18;
47081;PMS5003;33066;49.296;14.470;2022-11-28T03:21:58;18;13;
47081;PMS5003;33066;49.296;14.470;2022-11-28T03:24:23;18;15;
47081;PMS5003;33066;49.296;14.470;2022-11-28T03:26:50;15;14;
47081;PMS5003;33066;49.296;14.470;2022-11-28T03:29:15;16;14;
47081;PMS5003;33066;49.296;14.470;2022-11-28T03:31:41;14;12;
47081;PMS5003;33066;49.296;14.470;2022-11-28T03:34:04;10;10;
47081;PMS5003;33066;49.296;14.470;2022-11-28T03:36:30;14;13;
47081;PMS5003;33066;49.296;14.470;2022-11-28T03:38:55;14;12;
47081;PMS5003;33066;49.296;14.470;2022-11-28T03:41:21;19;14;
47081;PMS5003;33066;49.296;14.470;2022-11-28T03:43:46;19;19;
47081;PMS5003;33066;49.296;14.470;2022-11-28T03:46:13;12;12;
47081;PMS5003;33066;49.296;14.470;2022-11-28T03:48:37;21;15;
47081;PMS5003;33066;49.296;14.470;2022-11-28T03:51:01;17;13;
47081;PMS5003;33066;49.296;14.470;2022-11-28T03:53:26;25;21;
47081;PMS5003;33066;49.296;14.470;2022-11-28T03:55:54;20;15;
47081;PMS5003;33066;49.296;14.470;2022-11-28T03:58:21;20;11;
47081;PMS5003;33066;49.296;14.470;2022-11-28T04:00:45;17;13;
47081;PMS5003;33066;49.296;14.470;2022-11-28T04:03:09;17;16;
47081;PMS5003;33066;49.296;14.470;2022-11-28T04:05:35;19;16;
47081;PMS5003;33066;49.296;14.470;2022-11-28T04:07:59;27;20;
47081;PMS5003;33066;49.296;14.470;2022-11-28T04:13:04;33;25;
47081;PMS5003;33066;49.296;14.470;2022-11-28T04:15:29;22;20;
47081;PMS5003;33066;49.296;14.470;2022-11-28T04:17:53;15;15;
47081;PMS5003;33066;49.296;14.470;2022-11-28T04:20:20;28;22;
47081;PMS5003;33066;49.296;14.470;2022-11-28T04:22:44;27;17;
47081;PMS5003;33066;49.296;14.470;2022-11-28T04:25:10;26;21;
47081;PMS5003;33066;49.296;14.470;2022-11-28T04:27:34;14;13;
47081;PMS5003;33066;49.296;14.470;2022-11-28T04:30:00;34;24;
47081;PMS5003;33066;49.296;14.470;2022-11-28T04:32:25;21;16;
47081;PMS5003;33066;49.296;14.470;2022-11-28T04:34:51;20;17;
47081;PMS5003;33066;49.296;14.470;2022-11-28T04:37:15;21;14;
47081;PMS5003;33066;49.296;14.470;2022-11-28T04:39:41;14;14;
47081;PMS5003;33066;49.296;14.470;2022-11-28T04:42:08;26;23;
47081;PMS5003;33066;49.296;14.470;2022-11-28T04:44:33;23;16;
47081;PMS5003;33066;49.296;14.470;2022-11-28T04:46:58;25;21;
47081;PMS5003;33066;49.296;14.470;2022-11-28T04:49:23;20;17;
47081;PMS5003;33066;49.296;14.470;2022-11-28T04:51:50;22;21;
47081;PMS5003;33066;49.296;14.470;2022-11-28T04:54:15;15;15;
47081;PMS5003;33066;49.296;14.470;2022-11-28T04:56:41;17;15;
47081;PMS5003;33066;49.296;14.470;2022-11-28T04:59:05;21;17;
47081;PMS5003;33066;49.296;14.470;2022-11-28T05:01:31;25;20;
47081;PMS5003;33066;49.296;14.470;2022-11-28T05:03:56;24;17;
47081;PMS5003;33066;49.296;14.470;2022-11-28T05:06:23;27;23;
47081;PMS5003;33066;49.296;14.470;2022-11-28T05:08:47;24;13;
47081;PMS5003;33066;49.296;14.470;2022-11-28T05:11:12;22;21;
47081;PMS5003;33066;49.296;14.470;2022-11-28T05:13:38;20;16;
47081;PMS5003;33066;49.296;14.470;2022-11-28T05:16:04;28;21;
47081;PMS5003;33066;49.296;14.470;2022-11-28T05:18:28;26;17;
47081;PMS5003;33066;49.296;14.470;2022-11-28T05:20:53;28;25;
47081;PMS5003;33066;49.296;14.470;2022-11-28T05:23:19;20;19;
47081;PMS5003;33066;49.296;14.470;2022-11-28T05:25:44;31;22;
47081;PMS5003;33066;49.296;14.470;2022-11-28T05:28:09;32;22;
47081;PMS5003;33066;49.296;14.470;2022-11-28T05:30:34;21;21;
47081;PMS5003;33066;49.296;14.470;2022-11-28T05:33:00;35;25;
47081;PMS5003;33066;49.296;14.470;2022-11-28T05:35:25;23;20;
47081;PMS5003;33066;49.296;14.470;2022-11-28T05:37:51;21;17;
47081;PMS5003;33066;49.296;14.470;2022-11-28T05:40:16;28;21;
47081;PMS5003;33066;49.296;14.470;2022-11-28T05:42:42;26;20;
47081;PMS5003;33066;49.296;14.470;2022-11-28T05:45:07;26;20;
47081;PMS5003;33066;49.296;14.470;2022-11-28T05:47:33;25;22;
47081;PMS5003;33066;49.296;14.470;2022-11-28T05:49:58;22;19;
47081;PMS5003;33066;49.296;14.470;2022-11-28T05:52:23;25;20;
47081;PMS5003;33066;49.296;14.470;2022-11-28T05:54:49;27;23;
47081;PMS5003;33066;49.296;14.470;2022-11-28T05:57:14;34;33;
47081;PMS5003;33066;49.296;14.470;2022-11-28T05:59:40;22;20;
47081;PMS5003;33066;49.296;14.470;2022-11-28T06:02:05;55;51;
47081;PMS5003;33066;49.296;14.470;2022-11-28T06:04:33;19;17;
47081;PMS5003;33066;49.296;14.470;2022-11-28T06:06:57;19;17;
47081;PMS5003;33066;49.296;14.470;2022-11-28T06:09:23;35;28;
47081;PMS5003;33066;49.296;14.470;2022-11-28T06:11:47;31;26;
47081;PMS5003;33066;49.296;14.470;2022-11-28T06:14:12;26;22;
47081;PMS5003;33066;49.296;14.470;2022-11-28T06:16:37;21;20;
47081;PMS5003;33066;49.296;14.470;2022-11-28T06:19:03;27;25;
47081;PMS5003;33066;49.296;14.470;2022-11-28T06:21:28;37;28;
47081;PMS5003;33066;49.296;14.470;2022-11-28T06:23:54;26;21;
47081;PMS5003;33066;49.296;14.470;2022-11-28T06:26:21;27;21;
47081;PMS5003;33066;49.296;14.470;2022-11-28T06:28:44;33;27;
47081;PMS5003;33066;49.296;14.470;2022-11-28T06:31:10;19;18;
47081;PMS5003;33066;49.296;14.470;2022-11-28T06:33:36;35;23;
47081;PMS5003;33066;49.296;14.470;2022-11-28T06:36:01;31;26;
47081;PMS5003;33066;49.296;14.470;2022-11-28T06:38:26;28;28;
47081;PMS5003;33066;49.296;14.470;2022-11-28T06:40:55;27;23;
47081;PMS5003;33066;49.296;14.470;2022-11-28T06:43:17;26;20;
47081;PMS5003;33066;49.296;14.470;2022-11-28T06:45:42;31;26;
47081;PMS5003;33066;49.296;14.470;2022-11-28T06:48:08;44;42;
47081;PMS5003;33066;49.296;14.470;2022-11-28T06:50:35;20;16;
47081;PMS5003;33066;49.296;14.470;2022-11-28T06:52:59;40;37;
47081;PMS5003;33066;49.296;14.470;2022-11-28T06:55:24;47;40;
47081;PMS5003;33066;49.296;14.470;2022-11-28T06:57:50;34;26;
47081;PMS5003;33066;49.296;14.470;2022-11-28T07:00:15;27;19;
47081;PMS5003;33066;49.296;14.470;2022-11-28T07:02:41;33;31;
47081;PMS5003;33066;49.296;14.470;2022-11-28T07:05:06;29;23;
47081;PMS5003;33066;49.296;14.470;2022-11-28T07:07:32;34;28;
47081;PMS5003;33066;49.296;14.470;2022-11-28T07:09:57;542;425;
47081;PMS5003;33066;49.296;14.470;2022-11-28T07:12:23;402;323;
47081;PMS5003;33066;49.296;14.470;2022-11-28T07:14:49;88;74;
47081;PMS5003;33066;49.296;14.470;2022-11-28T07:17:14;73;63;
47081;PMS5003;33066;49.296;14.470;2022-11-28T07:19:40;50;40;
47081;PMS5003;33066;49.296;14.470;2022-11-28T07:22:05;52;44;
47081;PMS5003;33066;49.296;14.470;2022-11-28T07:24:31;32;31;
47081;PMS5003;33066;49.296;14.470;2022-11-28T07:26:56;38;28;
47081;PMS5003;33066;49.296;14.470;2022-11-28T07:29:21;40;34;
47081;PMS5003;33066;49.296;14.470;2022-11-28T07:31:47;50;41;
47081;PMS5003;33066;49.296;14.470;2022-11-28T07:34:12;40;31;
47081;PMS5003;33066;49.296;14.470;2022-11-28T07:36:38;118;104;
47081;PMS5003;33066;49.296;14.470;2022-11-28T07:39:04;57;46;
47081;PMS5003;33066;49.296;14.470;2022-11-28T07:41:29;22;22;
47081;PMS5003;33066;49.296;14.470;2022-11-28T07:43:55;77;63;
47081;PMS5003;33066;49.296;14.470;2022-11-28T07:46:20;226;187;
47081;PMS5003;33066;49.296;14.470;2022-11-28T07:48:46;253;197;
47081;PMS5003;33066;49.296;14.470;2022-11-28T07:51:11;133;109;
47081;PMS5003;33066;49.296;14.470;2022-11-28T07:53:36;235;180;
47081;PMS5003;33066;49.296;14.470;2022-11-28T07:56:01;336;288;
47081;PMS5003;33066;49.296;14.470;2022-11-28T07:58:27;65;51;
47081;PMS5003;33066;49.296;14.470;2022-11-28T08:00:52;68;58;
47081;PMS5003;33066;49.296;14.470;2022-11-28T08:03:17;42;36;
47081;PMS5003;33066;49.296;14.470;2022-11-28T08:05:43;59;49;
47081;PMS5003;33066;49.296;14.470;2022-11-28T08:08:08;130;106;
47081;PMS5003;33066;49.296;14.470;2022-11-28T08:10:34;77;67;
47081;PMS5003;33066;49.296;14.470;2022-11-28T08:12:59;40;29;
47081;PMS5003;33066;49.296;14.470;2022-11-28T08:15:24;1277;901;
47081;PMS5003;33066;49.296;14.470;2022-11-28T08:17:49;507;351;
47081;PMS5003;33066;49.296;14.470;2022-11-28T08:20:15;506;322;
47081;PMS5003;33066;49.296;14.470;2022-11-28T08:22:40;195;127;
47081;PMS5003;33066;49.296;14.470;2022-11-28T08:25:06;213;148;
47081;PMS5003;33066;49.296;14.470;2022-11-28T08:27:31;121;90;
47081;PMS5003;33066;49.296;14.470;2022-11-28T08:29:56;260;196;
47081;PMS5003;33066;49.296;14.470;2022-11-28T08:32:23;142;101;
47081;PMS5003;33066;49.296;14.470;2022-11-28T08:34:47;126;91;
47081;PMS5003;33066;49.296;14.470;2022-11-28T08:37:13;113;91;
47081;PMS5003;33066;49.296;14.470;2022-11-28T08:39:38;91;69;
47081;PMS5003;33066;49.296;14.470;2022-11-28T08:42:04;179;136;
47081;PMS5003;33066;49.296;14.470;2022-11-28T08:44:32;127;99;
47081;PMS5003;33066;49.296;14.470;2022-11-28T08:46:56;95;69;
47081;PMS5003;33066;49.296;14.470;2022-11-28T08:49:22;136;100;
47081;PMS5003;33066;49.296;14.470;2022-11-28T08:51:47;128;102;
47081;PMS5003;33066;49.296;14.470;2022-11-28T08:54:13;325;244;
47081;PMS5003;33066;49.296;14.470;2022-11-28T08:56:38;150;109;
47081;PMS5003;33066;49.296;14.470;2022-11-28T08:59:03;118;96;
47081;PMS5003;33066;49.296;14.470;2022-11-28T09:01:29;75;68;
47081;PMS5003;33066;49.296;14.470;2022-11-28T09:03:55;866;612;
47081;PMS5003;33066;49.296;14.470;2022-11-28T09:06:20;929;637;
47081;PMS5003;33066;49.296;14.470;2022-11-28T09:08:45;1333;921;
47081;PMS5003;33066;49.296;14.470;2022-11-28T09:11:11;302;229;
47081;PMS5003;33066;49.296;14.470;2022-11-28T09:13:36;81;65;
47081;PMS5003;33066;49.296;14.470;2022-11-28T09:16:01;48;34;
47081;PMS5003;33066;49.296;14.470;2022-11-28T09:18:26;55;40;
47081;PMS5003;33066;49.296;14.470;2022-11-28T09:20:56;217;178;
47081;PMS5003;33066;49.296;14.470;2022-11-28T09:23:18;225;170;
47081;PMS5003;33066;49.296;14.470;2022-11-28T09:25:43;224;181;
47081;PMS5003;33066;49.296;14.470;2022-11-28T09:28:09;40;36;
47081;PMS5003;33066;49.296;14.470;2022-11-28T09:30:34;38;31;
47081;PMS5003;33066;49.296;14.470;2022-11-28T09:32:59;56;45;
47081;PMS5003;33066;49.296;14.470;2022-11-28T09:35:25;43;35;
47081;PMS5003;33066;49.296;14.470;2022-11-28T09:37:50;41;35;
47081;PMS5003;33066;49.296;14.470;2022-11-28T09:40:18;23;22;
47081;PMS5003;33066;49.296;14.470;2022-11-28T09:42:41;38;29;
47081;PMS5003;33066;49.296;14.470;2022-11-28T09:45:09;76;63;
47081;PMS5003;33066;49.296;14.470;2022-11-28T09:47:33;74;62;
47081;PMS5003;33066;49.296;14.470;2022-11-28T09:49:57;29;23;
47081;PMS5003;33066;49.296;14.470;2022-11-28T09:52:25;30;24;
47081;PMS5003;33066;49.296;14.470;2022-11-28T09:54:48;32;29;
47081;PMS5003;33066;49.296;14.470;2022-11-28T09:57:14;50;41;
47081;PMS5003;33066;49.296;14.470;2022-11-28T09:59:39;23;21;
47081;PMS5003;33066;49.296;14.470;2022-11-28T10:02:04;34;24;
47081;PMS5003;33066;49.296;14.470;2022-11-28T10:04:30;28;18;
47081;PMS5003;33066;49.296;14.470;2022-11-28T10:06:55;40;31;
47081;PMS5003;33066;49.296;14.470;2022-11-28T10:09:26;36;29;
47081;PMS5003;33066;49.296;14.470;2022-11-28T10:11:50;49;44;
47081;PMS5003;33066;49.296;14.470;2022-11-28T10:19:03;24;20;
47081;PMS5003;33066;49.296;14.470;2022-11-28T10:21:28;30;27;
47081;PMS5003;33066;49.296;14.470;2022-11-28T10:23:52;34;28;
47081;PMS5003;33066;49.296;14.470;2022-11-28T10:26:19;30;25;
47081;PMS5003;33066;49.296;14.470;2022-11-28T10:28:43;37;33;
47081;PMS5003;33066;49.296;14.470;2022-11-28T10:31:08;67;61;
47081;PMS5003;33066;49.296;14.470;2022-11-28T10:33:34;128;106;
47081;PMS5003;33066;49.296;14.470;2022-11-28T10:35:59;37;31;
47081;PMS5003;33066;49.296;14.470;2022-11-28T10:38:24;118;103;
47081;PMS5003;33066;49.296;14.470;2022-11-28T10:40:49;51;49;
47081;PMS5003;33066;49.296;14.470;2022-11-28T10:43:21;33;33;
47081;PMS5003;33066;49.296;14.470;2022-11-28T10:45:44;54;41;
47081;PMS5003;33066;49.296;14.470;2022-11-28T10:48:11;51;43;
47081;PMS5003;33066;49.296;14.470;2022-11-28T10:50:32;251;170;
47081;PMS5003;33066;49.296;14.470;2022-11-28T10:52:57;116;94;
47081;PMS5003;33066;49.296;14.470;2022-11-28T10:55:24;41;30;
47081;PMS5003;33066;49.296;14.470;2022-11-28T10:57:48;104;77;
47081;PMS5003;33066;49.296;14.470;2022-11-28T11:00:12;233;176;
47081;PMS5003;33066;49.296;14.470;2022-11-28T11:02:39;290;211;
47081;PMS5003;33066;49.296;14.470;2022-11-28T11:05:04;341;262;
47081;PMS5003;33066;49.296;14.470;2022-11-28T11:07:29;799;575;
47081;PMS5003;33066;49.296;14.470;2022-11-28T11:09:54;405;297;
47081;PMS5003;33066;49.296;14.470;2022-11-28T11:12:20;626;441;
47081;PMS5003;33066;49.296;14.470;2022-11-28T11:14:45;693;520;
47081;PMS5003;33066;49.296;14.470;2022-11-28T11:19:36;132;103;
47081;PMS5003;33066;49.296;14.470;2022-11-28T11:22:03;749;527;
47081;PMS5003;33066;49.296;14.470;2022-11-28T11:24:27;658;482;
47081;PMS5003;33066;49.296;14.470;2022-11-28T11:26:52;482;378;
47081;PMS5003;33066;49.296;14.470;2022-11-28T11:29:20;152;122;
47081;PMS5003;33066;49.296;14.470;2022-11-28T11:31:48;227;184;
47081;PMS5003;33066;49.296;14.470;2022-11-28T11:34:12;365;285;
47081;PMS5003;33066;49.296;14.470;2022-11-28T11:36:37;574;452;
47081;PMS5003;33066;49.296;14.470;2022-11-28T11:39:05;335;260;
47081;PMS5003;33066;49.296;14.470;2022-11-28T11:41:27;198;169;
47081;PMS5003;33066;49.296;14.470;2022-11-28T11:43:52;141;114;
47081;PMS5003;33066;49.296;14.470;2022-11-28T11:46:18;88;82;
47081;PMS5003;33066;49.296;14.470;2022-11-28T11:48:44;45;44;
47081;PMS5003;33066;49.296;14.470;2022-11-28T11:53:34;61;56;
47081;PMS5003;33066;49.296;14.470;2022-11-28T11:56:02;231;195;
47081;PMS5003;33066;49.296;14.470;2022-11-28T11:58:25;147;129;
47081;PMS5003;33066;49.296;14.470;2022-11-28T12:00:51;199;179;
47081;PMS5003;33066;49.296;14.470;2022-11-28T12:03:19;66;58;
47081;PMS5003;33066;49.296;14.470;2022-11-28T12:05:45;113;102;
47081;PMS5003;33066;49.296;14.470;2022-11-28T12:08:09;54;43;
47081;PMS5003;33066;49.296;14.470;2022-11-28T12:10:34;43;37;
47081;PMS5003;33066;49.296;14.470;2022-11-28T12:12:57;129;114;
47081;PMS5003;33066;49.296;14.470;2022-11-28T12:15:25;108;95;
47081;PMS5003;33066;49.296;14.470;2022-11-28T12:17:54;78;67;
47081;PMS5003;33066;49.296;14.470;2022-11-28T12:22:41;155;136;
47081;PMS5003;33066;49.296;14.470;2022-11-28T12:25:08;65;64;
47081;PMS5003;33066;49.296;14.470;2022-11-28T12:27:33;94;82;
47081;PMS5003;33066;49.296;14.470;2022-11-28T12:30:13;36;29;
47081;PMS5003;33066;49.296;14.470;2022-11-28T12:32:26;46;44;
47081;PMS5003;33066;49.296;14.470;2022-11-28T12:34:51;50;40;
47081;PMS5003;33066;49.296;14.470;2022-11-28T12:37:13;62;55;
47081;PMS5003;33066;49.296;14.470;2022-11-28T12:39:38;53;50;
47081;PMS5003;33066;49.296;14.470;2022-11-28T12:42:08;45;33;
47081;PMS5003;33066;49.296;14.470;2022-11-28T12:44:30;44;38;
47081;PMS5003;33066;49.296;14.470;2022-11-28T12:46:53;65;48;
47081;PMS5003;33066;49.296;14.470;2022-11-28T12:49:18;53;47;
47081;PMS5003;33066;49.296;14.470;2022-11-28T12:51:49;43;37;
47081;PMS5003;33066;49.296;14.470;2022-11-28T12:54:18;32;32;
47081;PMS5003;33066;49.296;14.470;2022-11-28T12:56:37;74;64;
47081;PMS5003;33066;49.296;14.470;2022-11-28T12:59:00;163;154;
47081;PMS5003;33066;49.296;14.470;2022-11-28T13:01:29;95;87;
47081;PMS5003;33066;49.296;14.470;2022-11-28T13:03:54;39;33;
47081;PMS5003;33066;49.296;14.470;2022-11-28T13:06:20;25;23;
47081;PMS5003;33066;49.296;14.470;2022-11-28T13:08:44;37;30;
47081;PMS5003;33066;49.296;14.470;2022-11-28T13:11:11;43;38;
47081;PMS5003;33066;49.296;14.470;2022-11-28T13:13:33;32;30;
47081;PMS5003;33066;49.296;14.470;2022-11-28T13:15:58;29;28;
47081;PMS5003;33066;49.296;14.470;2022-11-28T13:18:25;25;24;
47081;PMS5003;33066;49.296;14.470;2022-11-28T13:20:48;36;30;
47081;PMS5003;33066;49.296;14.470;2022-11-28T13:23:16;77;66;
47081;PMS5003;33066;49.296;14.470;2022-11-28T13:25:40;55;51;
47081;PMS5003;33066;49.296;14.470;2022-11-28T13:28:06;55;49;
47081;PMS5003;33066;49.296;14.470;2022-11-28T13:30:31;40;37;
47081;PMS5003;33066;49.296;14.470;2022-11-28T13:32:58;25;24;
47081;PMS5003;33066;49.296;14.470;2022-11-28T13:35:21;130;122;
47081;PMS5003;33066;49.296;14.470;2022-11-28T13:37:49;35;30;
47081;PMS5003;33066;49.296;14.470;2022-11-28T13:40:14;31;25;
47081;PMS5003;33066;49.296;14.470;2022-11-28T13:42:39;30;24;
47081;PMS5003;33066;49.296;14.470;2022-11-28T13:45:03;19;17;
47081;PMS5003;33066;49.296;14.470;2022-11-28T13:47:31;24;20;
47081;PMS5003;33066;49.296;14.470;2022-11-28T13:54:50;17;15;
47081;PMS5003;33066;49.296;14.470;2022-11-28T13:57:15;43;40;
47081;PMS5003;33066;49.296;14.470;2022-11-28T13:59:36;35;26;
47081;PMS5003;33066;49.296;14.470;2022-11-28T14:02:00;53;42;
47081;PMS5003;33066;49.296;14.470;2022-11-28T14:04:25;156;108;
47081;PMS5003;33066;49.296;14.470;2022-11-28T14:06:51;309;213;
47081;PMS5003;33066;49.296;14.470;2022-11-28T14:09:23;127;91;
47081;PMS5003;33066;49.296;14.470;2022-11-28T14:11:46;176;134;
47081;PMS5003;33066;49.296;14.470;2022-11-28T14:14:12;198;149;
47081;PMS5003;33066;49.296;14.470;2022-11-28T14:16:37;130;106;
47081;PMS5003;33066;49.296;14.470;2022-11-28T14:19:01;135;104;
47081;PMS5003;33066;49.296;14.470;2022-11-28T14:21:25;56;45;
47081;PMS5003;33066;49.296;14.470;2022-11-28T14:23:51;125;98;
47081;PMS5003;33066;49.296;14.470;2022-11-28T14:26:20;835;572;
47081;PMS5003;33066;49.296;14.470;2022-11-28T14:28:42;412;289;
47081;PMS5003;33066;49.296;14.470;2022-11-28T14:31:11;177;141;
47081;PMS5003;33066;49.296;14.470;2022-11-28T14:33:32;185;135;
47081;PMS5003;33066;49.296;14.470;2022-11-28T14:36:02;125;109;
47081;PMS5003;33066;49.296;14.470;2022-11-28T14:43:20;68;56;
47081;PMS5003;33066;49.296;14.470;2022-11-28T14:45:40;35;32;
47081;PMS5003;33066;49.296;14.470;2022-11-28T14:48:05;28;28;
47081;PMS5003;33066;49.296;14.470;2022-11-28T14:55:21;36;30;
47081;PMS5003;33066;49.296;14.470;2022-11-28T14:57:54;23;22;
47081;PMS5003;33066;49.296;14.470;2022-11-28T15:00:13;43;37;
47081;PMS5003;33066;49.296;14.470;2022-11-28T15:02:45;35;31;
47081;PMS5003;33066;49.296;14.470;2022-11-28T15:05:12;41;34;
47081;PMS5003;33066;49.296;14.470;2022-11-28T15:07:30;36;33;
47081;PMS5003;33066;49.296;14.470;2022-11-28T15:09:56;64;53;
47081;PMS5003;33066;49.296;14.470;2022-11-28T15:12:21;32;27;
47081;PMS5003;33066;49.296;14.470;2022-11-28T15:14:46;24;20;
47081;PMS5003;33066;49.296;14.470;2022-11-28T15:17:11;34;28;
47081;PMS5003;33066;49.296;14.470;2022-11-28T15:19:38;38;35;
47081;PMS5003;33066;49.296;14.470;2022-11-28T15:22:02;37;32;
47081;PMS5003;33066;49.296;14.470;2022-11-28T15:24:28;47;41;
47081;PMS5003;33066;49.296;14.470;2022-11-28T15:26:53;39;32;
47081;PMS5003;33066;49.296;14.470;2022-11-28T15:29:19;27;26;
47081;PMS5003;33066;49.296;14.470;2022-11-28T15:31:44;41;32;
47081;PMS5003;33066;49.296;14.470;2022-11-28T15:34:09;50;39;
47081;PMS5003;33066;49.296;14.470;2022-11-28T15:36:34;51;42;
47081;PMS5003;33066;49.296;14.470;2022-11-28T15:38:59;56;48;
47081;PMS5003;33066;49.296;14.470;2022-11-28T15:41:25;44;40;
47081;PMS5003;33066;49.296;14.470;2022-11-28T15:43:51;50;40;
47081;PMS5003;33066;49.296;14.470;2022-11-28T15:46:17;41;41;
47081;PMS5003;33066;49.296;14.470;2022-11-28T15:51:07;40;37;
47081;PMS5003;33066;49.296;14.470;2022-11-28T15:53:32;42;35;
47081;PMS5003;33066;49.296;14.470;2022-11-28T15:56:06;33;30;
47081;PMS5003;33066;49.296;14.470;2022-11-28T15:58:23;40;31;
47081;PMS5003;33066;49.296;14.470;2022-11-28T16:00:49;41;39;
47081;PMS5003;33066;49.296;14.470;2022-11-28T16:03:14;43;30;
47081;PMS5003;33066;49.296;14.470;2022-11-28T16:05:40;36;32;
47081;PMS5003;33066;49.296;14.470;2022-11-28T16:10:31;35;31;
47081;PMS5003;33066;49.296;14.470;2022-11-28T16:12:58;28;24;
47081;PMS5003;33066;49.296;14.470;2022-11-28T16:15:21;42;36;
47081;PMS5003;33066;49.296;14.470;2022-11-28T16:17:46;94;62;
47081;PMS5003;33066;49.296;14.470;2022-11-28T16:20:18;54;46;
47081;PMS5003;33066;49.296;14.470;2022-11-28T16:22:37;60;48;
47081;PMS5003;33066;49.296;14.470;2022-11-28T16:27:31;95;66;
47081;PMS5003;33066;49.296;14.470;2022-11-28T16:29:53;106;81;
47081;PMS5003;33066;49.296;14.470;2022-11-28T16:32:20;69;51;